Etusivu
METAR-TAF:

METAR-TAF

Lentoasemat :

Salta, Argentiina

Leveyspiiri: 24-51S, Pituuspiiri: 065-29W, korkeus merenpinnasta: 1238 m

Tämänhetkinen sää

Tämä raportti tehtiin 16 minuuttia sitten, kello 15.00 UTC
Tuuli 3 kn idästä
Lämpötila 12°C
Kosteus 67%
Ilmanpaine 1022 hPa
Näkyvyys 10 km tai enemmän
ei pilviä alle 1500 m:ssä eikä cumulonimbus-pilviä

METAR: SASA 061500Z 09003KT CAVOK 12/06 Q1022

Aika: 12:16 (15:16 UTC)

Sääennuste

Tämä raportti tehtiin 4 tuntia ja 16 minuuttia sitten, kello 11.00 UTC
Ennuste voimassa 06. päivästä klo 12 UTC - 07. päivään klo 12 UTC
Tuuli 5 kn koillisesta
Näkyvyys 10 km tai enemmän
ei pilviä alle 1500 m:ssä eikä cumulonimbus-pilviä
Tulossa
06. päivästä klo 14 UTC - 06. päivään klo 16 UTC
Tuuli 10 kn koillisesta
Tulossa
06. päivästä klo 23 UTC - 07. päivään klo 01 UTC
Tuuli 3 kn eri suunnista

TAF: SASA 061100Z 0612/0712 05005KT CAVOK TX20/0618Z TN06/0710Z BECMG 0614/0616 05010KT BECMG 0623/0701 VRB03KT

Säähavainnot ja -ennusteet yli 4000 lentoasemalta (METAR- ja TAF-raportit).

Käytössä olevat sääasemat on merkitty karttaan keltaisilla ja punaisilla pisteillä.

Aseta hiiri pisteen päälle nähdäksesi sääaseman nimen.

Klikkaa sitten nähdäksesi säähavainnot ja -ennusteet.

Kartan vaihtaminen: klikkaa mustalla rastilla varustettuja vihreitä pisteitä, niin voit zoomata sisään; viivalla varustettua vihreää pistettä, niin voit zoomata ulos tai vihreitä nuolia, niin pääset viereisille kartoille.


METAR-TAF: